sensor_id;sensor_type;location;lat;lon;timestamp;pressure;altitude;pressure_sealevel;temperature;humidity
41078;BME280;26823;42.662;23.352;2024-02-23T05:16:52;157210.97;;;4.21;80.97
41078;BME280;26823;42.662;23.352;2024-02-23T05:19:19;157181.47;;;4.10;81.20
41078;BME280;26823;42.662;23.352;2024-02-23T05:21:44;157193.56;;;4.15;81.33
41078;BME280;26823;42.662;23.352;2024-02-23T05:24:11;157161.34;;;4.02;81.49
41078;BME280;26823;42.662;23.352;2024-02-23T05:26:36;157232.47;;;4.30;81.72
41078;BME280;26823;42.662;23.352;2024-02-23T05:29:02;157260.59;;;4.40;81.08
41078;BME280;26823;42.662;23.352;2024-02-23T05:31:45;157279.41;;;4.48;80.73
41078;BME280;26823;42.662;23.352;2024-02-23T05:34:11;157229.78;;;4.29;80.04
41078;BME280;26823;42.662;23.352;2024-02-23T05:36:37;157282.09;;;4.49;80.16
41078;BME280;26823;42.662;23.352;2024-02-23T05:39:02;157275.41;;;4.46;80.41
41078;BME280;26823;42.662;23.352;2024-02-23T05:41:28;157276.72;;;4.47;80.40
41078;BME280;26823;42.662;23.352;2024-02-23T05:43:53;157291.50;;;4.52;80.38
41078;BME280;26823;42.662;23.352;2024-02-23T05:46:18;157302.22;;;4.56;80.61
41078;BME280;26823;42.662;23.352;2024-02-23T05:48:44;157314.31;;;4.61;80.34
41078;BME280;26823;42.662;23.352;2024-02-23T05:51:09;157323.66;;;4.65;80.14
41078;BME280;26823;42.662;23.352;2024-02-23T05:53:34;157319.66;;;4.63;80.27
41078;BME280;26823;42.662;23.352;2024-02-23T05:56:00;157312.94;;;4.61;80.40
41078;BME280;26823;42.662;23.352;2024-02-23T05:58:25;157252.59;;;4.37;80.95
41078;BME280;26823;42.662;23.352;2024-02-23T06:00:50;157282.09;;;4.49;81.18
41078;BME280;26823;42.662;23.352;2024-02-23T06:03:17;157296.84;;;4.54;81.13
41078;BME280;26823;42.662;23.352;2024-02-23T06:05:43;157323.66;;;4.65;80.38
41078;BME280;26823;42.662;23.352;2024-02-23T06:08:08;157409.53;;;4.98;78.90
41078;BME280;26823;42.662;23.352;2024-02-23T06:10:34;157601.56;;;5.71;75.82
41078;BME280;26823;42.662;23.352;2024-02-23T06:12:59;157848.78;;;6.66;73.87
41078;BME280;26823;42.662;23.352;2024-02-23T06:15:24;158077.28;;;7.54;69.58
41078;BME280;26823;42.662;23.352;2024-02-23T06:17:50;158293.78;;;8.37;66.43
41078;BME280;26823;42.662;23.352;2024-02-23T06:20:15;158327.50;;;8.50;61.56
41078;BME280;26823;42.662;23.352;2024-02-23T06:22:41;158568.44;;;9.42;58.94
41078;BME280;26823;42.662;23.352;2024-02-23T06:25:06;158856.72;;;10.53;56.29
41078;BME280;26823;42.662;23.352;2024-02-23T06:27:32;159070.97;;;11.35;52.34
41078;BME280;26823;42.662;23.352;2024-02-23T06:29:58;158999.56;;;11.07;50.83
41078;BME280;26823;42.662;23.352;2024-02-23T06:32:23;158986.09;;;11.02;51.67
41078;BME280;26823;42.662;23.352;2024-02-23T06:34:48;159228.75;;;11.95;48.81
41078;BME280;26823;42.662;23.352;2024-02-23T06:37:14;159510.78;;;13.03;46.81
41078;BME280;26823;42.662;23.352;2024-02-23T06:39:39;159760.56;;;13.98;43.97
41078;BME280;26823;42.662;23.352;2024-02-23T06:42:04;159968.66;;;14.78;41.03
41078;BME280;26823;42.662;23.352;2024-02-23T06:44:30;160183.53;;;15.60;40.12
41078;BME280;26823;42.662;23.352;2024-02-23T06:46:55;160378.31;;;16.34;38.20
41078;BME280;26823;42.662;23.352;2024-02-23T06:49:21;160362.09;;;16.28;37.57
41078;BME280;26823;42.662;23.352;2024-02-23T06:51:46;160114.59;;;15.33;38.20
41078;BME280;26823;42.662;23.352;2024-02-23T06:54:12;160090.28;;;15.24;38.73
41078;BME280;26823;42.662;23.352;2024-02-23T06:56:37;160213.28;;;15.71;38.61
41078;BME280;26823;42.662;23.352;2024-02-23T06:59:02;160143.00;;;15.44;38.87
41078;BME280;26823;42.662;23.352;2024-02-23T07:01:28;159844.34;;;14.30;40.46
41078;BME280;26823;42.662;23.352;2024-02-23T07:03:53;159657.97;;;13.59;41.79
41078;BME280;26823;42.662;23.352;2024-02-23T07:06:19;159351.53;;;12.42;44.05
41078;BME280;26823;42.662;23.352;2024-02-23T07:08:44;159467.59;;;12.86;44.34
41078;BME280;26823;42.662;23.352;2024-02-23T07:11:11;159547.22;;;13.17;43.91
41078;BME280;26823;42.662;23.352;2024-02-23T07:13:36;159605.31;;;13.39;42.72
41078;BME280;26823;42.662;23.352;2024-02-23T07:16:02;159516.19;;;13.05;42.38
41078;BME280;26823;42.662;23.352;2024-02-23T07:18:27;159416.34;;;12.67;43.37
41078;BME280;26823;42.662;23.352;2024-02-23T07:20:53;159529.69;;;13.10;43.35
41078;BME280;26823;42.662;23.352;2024-02-23T07:23:18;159586.38;;;13.32;42.98
41078;BME280;26823;42.662;23.352;2024-02-23T07:25:44;159195.03;;;11.82;45.68
41078;BME280;26823;42.662;23.352;2024-02-23T07:28:10;159154.59;;;11.67;47.79
41078;BME280;26823;42.662;23.352;2024-02-23T07:30:35;159512.16;;;13.03;44.45
41078;BME280;26823;42.662;23.352;2024-02-23T07:33:00;159594.44;;;13.35;43.85
41078;BME280;26823;42.662;23.352;2024-02-23T07:35:26;159686.31;;;13.70;42.72
41078;BME280;26823;42.662;23.352;2024-02-23T07:37:51;159659.31;;;13.60;42.93
41078;BME280;26823;42.662;23.352;2024-02-23T07:40:17;159722.75;;;13.84;42.96
41078;BME280;26823;42.662;23.352;2024-02-23T07:42:42;159757.91;;;13.97;42.79
41078;BME280;26823;42.662;23.352;2024-02-23T07:45:08;159906.44;;;14.54;42.03
41078;BME280;26823;42.662;23.352;2024-02-23T07:47:34;160060.56;;;15.13;41.32
41078;BME280;26823;42.662;23.352;2024-02-23T07:49:59;160159.22;;;15.51;40.07
41078;BME280;26823;42.662;23.352;2024-02-23T07:52:25;160263.34;;;15.90;39.56
41078;BME280;26823;42.662;23.352;2024-02-23T07:54:54;160374.22;;;16.33;38.89
41078;BME280;26823;42.662;23.352;2024-02-23T07:57:20;160321.47;;;16.12;38.81
41078;BME280;26823;42.662;23.352;2024-02-23T07:59:45;160295.81;;;16.03;39.25
41078;BME280;26823;42.662;23.352;2024-02-23T08:02:11;160418.88;;;16.50;38.12
41078;BME280;26823;42.662;23.352;2024-02-23T08:04:36;160567.75;;;17.06;37.28
41078;BME280;26823;42.662;23.352;2024-02-23T08:07:02;160824.94;;;18.04;36.01
41078;BME280;26823;42.662;23.352;2024-02-23T08:09:27;160998.28;;;18.70;35.36
41078;BME280;26823;42.662;23.352;2024-02-23T08:11:53;160992.84;;;18.68;34.33
41078;BME280;26823;42.662;23.352;2024-02-23T08:14:18;161148.66;;;19.28;33.82
41078;BME280;26823;42.662;23.352;2024-02-23T08:16:44;161200.19;;;19.47;33.09
41078;BME280;26823;42.662;23.352;2024-02-23T08:19:09;161419.81;;;20.31;32.23
41078;BME280;26823;42.662;23.352;2024-02-23T08:21:34;161408.91;;;20.27;32.29
41078;BME280;26823;42.662;23.352;2024-02-23T08:24:00;161495.72;;;20.60;31.62
41078;BME280;26823;42.662;23.352;2024-02-23T08:26:25;161688.31;;;21.33;30.82
41078;BME280;26823;42.662;23.352;2024-02-23T08:28:51;161469.97;;;20.50;31.56
41078;BME280;26823;42.662;23.352;2024-02-23T08:31:16;161406.25;;;20.26;31.11
41078;BME280;26823;42.662;23.352;2024-02-23T08:33:42;161007.75;;;18.74;34.07
41078;BME280;26823;42.662;23.352;2024-02-23T08:36:07;161061.97;;;18.95;34.36
41078;BME280;26823;42.662;23.352;2024-02-23T08:38:35;161286.91;;;19.80;32.99
41078;BME280;26823;42.662;23.352;2024-02-23T08:41:01;161175.75;;;19.38;33.26
41078;BME280;26823;42.662;23.352;2024-02-23T08:43:27;160967.13;;;18.58;33.90
41078;BME280;26823;42.662;23.352;2024-02-23T08:45:52;160999.66;;;18.71;34.28
41078;BME280;26823;42.662;23.352;2024-02-23T08:48:18;161194.75;;;19.45;33.73
41078;BME280;26823;42.662;23.352;2024-02-23T08:50:43;161444.19;;;20.40;32.36
41078;BME280;26823;42.662;23.352;2024-02-23T08:53:08;161501.13;;;20.62;31.49
41078;BME280;26823;42.662;23.352;2024-02-23T08:55:34;161578.47;;;20.91;30.77
41078;BME280;26823;42.662;23.352;2024-02-23T08:57:59;161634.06;;;21.12;30.47
41078;BME280;26823;42.662;23.352;2024-02-23T09:00:25;161478.06;;;20.53;30.25
41078;BME280;26823;42.662;23.352;2024-02-23T09:02:50;161005.03;;;18.73;32.83
41078;BME280;26823;42.662;23.352;2024-02-23T09:05:15;160818.19;;;18.02;34.02
41078;BME280;26823;42.662;23.352;2024-02-23T09:07:41;160937.34;;;18.47;33.61
41078;BME280;26823;42.662;23.352;2024-02-23T09:10:07;160977.97;;;18.63;33.36
41078;BME280;26823;42.662;23.352;2024-02-23T09:12:32;160983.41;;;18.65;33.47
41078;BME280;26823;42.662;23.352;2024-02-23T09:14:58;160999.66;;;18.71;33.33
41078;BME280;26823;42.662;23.352;2024-02-23T09:17:23;160876.38;;;18.24;33.38
41078;BME280;26823;42.662;23.352;2024-02-23T09:19:49;160743.69;;;17.73;34.55
41078;BME280;26823;42.662;23.352;2024-02-23T09:22:14;160777.53;;;17.86;34.95
41078;BME280;26823;42.662;23.352;2024-02-23T09:24:41;160853.41;;;18.15;34.58
41078;BME280;26823;42.662;23.352;2024-02-23T09:27:06;160921.09;;;18.41;33.66
41078;BME280;26823;42.662;23.352;2024-02-23T09:29:32;160888.56;;;18.29;33.90
41078;BME280;26823;42.662;23.352;2024-02-23T09:31:58;160639.44;;;17.34;34.89
41078;BME280;26823;42.662;23.352;2024-02-23T09:34:23;160777.53;;;17.86;34.43
41078;BME280;26823;42.662;23.352;2024-02-23T09:36:49;160708.47;;;17.60;33.69
41078;BME280;26823;42.662;23.352;2024-02-23T09:39:15;160445.94;;;16.60;34.88
41078;BME280;26823;42.662;23.352;2024-02-23T09:41:41;160394.50;;;16.40;36.32
41078;BME280;26823;42.662;23.352;2024-02-23T09:44:07;160707.16;;;17.59;33.98
41078;BME280;26823;42.662;23.352;2024-02-23T09:46:36;160983.41;;;18.65;32.98
41078;BME280;26823;42.662;23.352;2024-02-23T09:49:02;160998.28;;;18.70;31.83
41078;BME280;26823;42.662;23.352;2024-02-23T09:51:29;160764.00;;;17.81;32.77
41078;BME280;26823;42.662;23.352;2024-02-23T09:53:56;160865.56;;;18.20;32.64
41078;BME280;26823;42.662;23.352;2024-02-23T09:56:26;160887.25;;;18.28;32.36
41078;BME280;26823;42.662;23.352;2024-02-23T09:58:52;161013.19;;;18.76;31.85
41078;BME280;26823;42.662;23.352;2024-02-23T10:01:30;161059.25;;;18.94;32.88
41078;BME280;26823;42.662;23.352;2024-02-23T10:04:00;161251.66;;;19.67;31.58
41078;BME280;26823;42.662;23.352;2024-02-23T10:06:25;161271.97;;;19.75;30.03
41078;BME280;26823;42.662;23.352;2024-02-23T10:08:51;161391.31;;;20.20;29.73
41078;BME280;26823;42.662;23.352;2024-02-23T10:11:23;161139.19;;;19.24;29.65
41078;BME280;26823;42.662;23.352;2024-02-23T10:13:49;161441.47;;;20.39;28.99
41078;BME280;26823;42.662;23.352;2024-02-23T10:16:16;161566.28;;;20.87;28.25
41078;BME280;26823;42.662;23.352;2024-02-23T10:18:41;161563.56;;;20.85;27.74
41078;BME280;26823;42.662;23.352;2024-02-23T10:21:07;161408.91;;;20.27;28.42
41078;BME280;26823;42.662;23.352;2024-02-23T10:23:32;161501.13;;;20.62;28.21
41078;BME280;26823;42.662;23.352;2024-02-23T10:25:57;161026.72;;;18.81;30.31
41078;BME280;26823;42.662;23.352;2024-02-23T10:28:23;161174.44;;;19.37;29.71
41078;BME280;26823;42.662;23.352;2024-02-23T10:30:49;161305.94;;;19.87;28.89
41078;BME280;26823;42.662;23.352;2024-02-23T10:33:14;161422.53;;;20.32;28.88
41078;BME280;26823;42.662;23.352;2024-02-23T10:35:40;161513.34;;;20.66;28.47
41078;BME280;26823;42.662;23.352;2024-02-23T10:38:11;161624.56;;;21.09;27.85
41078;BME280;26823;42.662;23.352;2024-02-23T10:40:39;161851.19;;;21.95;26.73
41078;BME280;26823;42.662;23.352;2024-02-23T10:43:12;161843.06;;;21.92;26.06
41078;BME280;26823;42.662;23.352;2024-02-23T10:45:39;161673.41;;;21.27;26.61
41078;BME280;26823;42.662;23.352;2024-02-23T10:48:07;161461.78;;;20.47;27.46
41078;BME280;26823;42.662;23.352;2024-02-23T10:50:34;161353.38;;;20.06;28.12
41078;BME280;26823;42.662;23.352;2024-02-23T10:53:00;161316.78;;;19.92;28.03
41078;BME280;26823;42.662;23.352;2024-02-23T10:55:26;161286.91;;;19.80;28.08
41078;BME280;26823;42.662;23.352;2024-02-23T10:57:55;161093.16;;;19.06;28.86
41078;BME280;26823;42.662;23.352;2024-02-23T11:00:21;161269.31;;;19.74;28.55
41078;BME280;26823;42.662;23.352;2024-02-23T11:02:51;161160.88;;;19.32;28.17
41078;BME280;26823;42.662;23.352;2024-02-23T11:05:18;161350.66;;;20.04;27.46
41078;BME280;26823;42.662;23.352;2024-02-23T11:07:46;161270.66;;;19.74;27.27
41078;BME280;26823;42.662;23.352;2024-02-23T11:10:16;161483.50;;;20.55;26.87
41078;BME280;26823;42.662;23.352;2024-02-23T11:12:43;161573.06;;;20.89;26.39
41078;BME280;26823;42.662;23.352;2024-02-23T11:15:08;161760.28;;;21.60;25.42
41078;BME280;26823;42.662;23.352;2024-02-23T11:17:36;161946.19;;;22.31;24.92
41078;BME280;26823;42.662;23.352;2024-02-23T11:20:04;161882.41;;;22.07;24.85
41078;BME280;26823;42.662;23.352;2024-02-23T11:22:31;161978.84;;;22.43;24.87
41078;BME280;26823;42.662;23.352;2024-02-23T11:25:05;162061.59;;;22.75;24.05
41078;BME280;26823;42.662;23.352;2024-02-23T11:27:31;161894.59;;;22.11;23.32
41078;BME280;26823;42.662;23.352;2024-02-23T11:30:04;161129.75;;;19.20;26.78
41078;BME280;26823;42.662;23.352;2024-02-23T11:32:41;161375.03;;;20.14;26.72
41078;BME280;26823;42.662;23.352;2024-02-23T11:35:08;161399.47;;;20.23;26.92
41078;BME280;26823;42.662;23.352;2024-02-23T11:37:56;161323.56;;;19.94;27.10
41078;BME280;26823;42.662;23.352;2024-02-23T11:40:31;161501.13;;;20.62;26.42
41078;BME280;26823;42.662;23.352;2024-02-23T11:42:57;161643.59;;;21.16;25.56
41078;BME280;26823;42.662;23.352;2024-02-23T11:45:25;161670.69;;;21.26;25.54
41078;BME280;26823;42.662;23.352;2024-02-23T11:47:50;161727.66;;;21.48;25.04
41078;BME280;26823;42.662;23.352;2024-02-23T11:50:16;161724.94;;;21.47;24.32
41078;BME280;26823;42.662;23.352;2024-02-23T11:52:44;161741.22;;;21.53;24.70
41078;BME280;26823;42.662;23.352;2024-02-23T11:55:10;161761.63;;;21.61;24.37
41078;BME280;26823;42.662;23.352;2024-02-23T11:57:36;161685.66;;;21.32;24.50
41078;BME280;26823;42.662;23.352;2024-02-23T12:00:06;161442.84;;;20.40;26.25
41078;BME280;26823;42.662;23.352;2024-02-23T12:02:35;161407.59;;;20.26;25.83
41078;BME280;26823;42.662;23.352;2024-02-23T12:05:01;161372.31;;;20.13;25.52
41078;BME280;26823;42.662;23.352;2024-02-23T12:09:54;161271.97;;;19.75;26.69
41078;BME280;26823;42.662;23.352;2024-02-23T12:12:19;161118.88;;;19.16;27.12
41078;BME280;26823;42.662;23.352;2024-02-23T12:14:47;161108.03;;;19.12;27.47
41078;BME280;26823;42.662;23.352;2024-02-23T12:17:13;161037.56;;;18.85;28.43
41078;BME280;26823;42.662;23.352;2024-02-23T12:19:41;160791.06;;;17.91;27.69
41078;BME280;26823;42.662;23.352;2024-02-23T12:22:07;160743.69;;;17.73;28.03
41078;BME280;26823;42.662;23.352;2024-02-23T12:24:34;160690.91;;;17.53;29.11
41078;BME280;26823;42.662;23.352;2024-02-23T12:26:59;160594.81;;;17.17;28.93
41078;BME280;26823;42.662;23.352;2024-02-23T12:29:25;160581.28;;;17.11;29.31
41078;BME280;26823;42.662;23.352;2024-02-23T12:31:50;160606.97;;;17.21;29.25
41078;BME280;26823;42.662;23.352;2024-02-23T12:34:18;160582.63;;;17.12;29.98
41078;BME280;26823;42.662;23.352;2024-02-23T12:36:46;160513.56;;;16.86;31.14
41078;BME280;26823;42.662;23.352;2024-02-23T12:39:11;160516.25;;;16.87;30.92
41078;BME280;26823;42.662;23.352;2024-02-23T12:41:36;160398.59;;;16.42;29.78
41078;BME280;26823;42.662;23.352;2024-02-23T12:44:02;160201.09;;;15.66;30.70
41078;BME280;26823;42.662;23.352;2024-02-23T12:46:27;160138.97;;;15.43;31.04
41078;BME280;26823;42.662;23.352;2024-02-23T12:48:53;160220.03;;;15.74;31.01
41078;BME280;26823;42.662;23.352;2024-02-23T12:51:18;160268.78;;;15.92;31.35
41078;BME280;26823;42.662;23.352;2024-02-23T12:53:44;160282.31;;;15.97;31.61
41078;BME280;26823;42.662;23.352;2024-02-23T12:56:11;160306.63;;;16.07;31.80
41078;BME280;26823;42.662;23.352;2024-02-23T12:58:38;160395.91;;;16.41;31.31
41078;BME280;26823;42.662;23.352;2024-02-23T13:01:04;160398.59;;;16.42;31.50
41078;BME280;26823;42.662;23.352;2024-02-23T13:03:31;160428.38;;;16.53;31.31
41078;BME280;26823;42.662;23.352;2024-02-23T13:05:57;160348.56;;;16.23;31.21
41078;BME280;26823;42.662;23.352;2024-02-23T13:08:23;160371.56;;;16.32;31.91
41078;BME280;26823;42.662;23.352;2024-02-23T13:10:49;160417.50;;;16.49;31.44
41078;BME280;26823;42.662;23.352;2024-02-23T13:13:15;160426.97;;;16.53;31.22
41078;BME280;26823;42.662;23.352;2024-02-23T13:15:44;160402.66;;;16.43;31.29
41078;BME280;26823;42.662;23.352;2024-02-23T13:18:09;160355.34;;;16.25;31.49
41078;BME280;26823;42.662;23.352;2024-02-23T13:20:38;160356.66;;;16.26;31.26
41078;BME280;26823;42.662;23.352;2024-02-23T13:23:05;160356.66;;;16.26;31.14
41078;BME280;26823;42.662;23.352;2024-02-23T13:25:32;160368.84;;;16.30;30.99
41078;BME280;26823;42.662;23.352;2024-02-23T13:27:57;160397.22;;;16.41;30.99
41078;BME280;26823;42.662;23.352;2024-02-23T13:30:23;160382.38;;;16.36;31.04
41078;BME280;26823;42.662;23.352;2024-02-23T13:32:48;160403.97;;;16.44;31.43
41078;BME280;26823;42.662;23.352;2024-02-23T13:35:14;160378.31;;;16.34;31.39
41078;BME280;26823;42.662;23.352;2024-02-23T13:37:41;160364.81;;;16.29;31.54
41078;BME280;26823;42.662;23.352;2024-02-23T13:40:08;160376.94;;;16.34;32.21
41078;BME280;26823;42.662;23.352;2024-02-23T13:42:34;160370.19;;;16.31;32.18
41078;BME280;26823;42.662;23.352;2024-02-23T13:45:00;160343.13;;;16.21;32.52
41078;BME280;26823;42.662;23.352;2024-02-23T13:47:25;160316.09;;;16.10;32.58
41078;BME280;26823;42.662;23.352;2024-02-23T13:49:50;160333.66;;;16.17;32.06
41078;BME280;26823;42.662;23.352;2024-02-23T13:52:16;160321.47;;;16.12;31.90
41078;BME280;26823;42.662;23.352;2024-02-23T13:54:41;160291.78;;;16.01;31.93
41078;BME280;26823;42.662;23.352;2024-02-23T13:57:08;160203.81;;;15.68;32.74
41078;BME280;26823;42.662;23.352;2024-02-23T13:59:33;160145.72;;;15.45;33.23
41078;BME280;26823;42.662;23.352;2024-02-23T14:01:59;160178.13;;;15.58;33.31
41078;BME280;26823;42.662;23.352;2024-02-23T14:04:25;160280.91;;;15.97;33.12
41078;BME280;26823;42.662;23.352;2024-02-23T14:06:51;160352.63;;;16.24;32.44
41078;BME280;26823;42.662;23.352;2024-02-23T14:09:16;160437.84;;;16.57;31.85
41078;BME280;26823;42.662;23.352;2024-02-23T14:11:42;160524.41;;;16.90;31.45
41078;BME280;26823;42.662;23.352;2024-02-23T14:14:07;160709.81;;;17.60;30.77
41078;BME280;26823;42.662;23.352;2024-02-23T14:16:33;160922.41;;;18.41;29.59
41078;BME280;26823;42.662;23.352;2024-02-23T14:18:59;160740.97;;;17.72;29.22
41078;BME280;26823;42.662;23.352;2024-02-23T14:21:43;160455.41;;;16.63;30.43
41078;BME280;26823;42.662;23.352;2024-02-23T14:24:08;160370.19;;;16.31;30.82
41078;BME280;26823;42.662;23.352;2024-02-23T14:26:34;160418.88;;;16.50;30.29
41078;BME280;26823;42.662;23.352;2024-02-23T14:28:59;160506.78;;;16.83;30.13
41078;BME280;26823;42.662;23.352;2024-02-23T14:31:25;160497.31;;;16.79;30.33
41078;BME280;26823;42.662;23.352;2024-02-23T14:33:51;160374.22;;;16.33;31.46
41078;BME280;26823;42.662;23.352;2024-02-23T14:36:17;160370.19;;;16.31;31.19
41078;BME280;26823;42.662;23.352;2024-02-23T14:38:43;160264.69;;;15.91;31.76
41078;BME280;26823;42.662;23.352;2024-02-23T14:41:09;160286.34;;;15.99;32.10
41078;BME280;26823;42.662;23.352;2024-02-23T14:43:35;160352.63;;;16.24;31.92
41078;BME280;26823;42.662;23.352;2024-02-23T14:46:01;160316.09;;;16.10;32.20
41078;BME280;26823;42.662;23.352;2024-02-23T14:48:26;160368.84;;;16.30;31.91
41078;BME280;26823;42.662;23.352;2024-02-23T14:50:51;160360.72;;;16.27;31.56
41078;BME280;26823;42.662;23.352;2024-02-23T14:53:17;160241.72;;;15.82;32.01
41078;BME280;26823;42.662;23.352;2024-02-23T14:55:43;160293.13;;;16.02;31.86
41078;BME280;26823;42.662;23.352;2024-02-23T14:58:08;160236.28;;;15.80;34.86
41078;BME280;26823;42.662;23.352;2024-02-23T15:00:34;160283.63;;;15.98;33.39
41078;BME280;26823;42.662;23.352;2024-02-23T15:02:59;160252.56;;;15.86;34.86
41078;BME280;26823;42.662;23.352;2024-02-23T15:05:25;160259.31;;;15.89;34.55
41078;BME280;26823;42.662;23.352;2024-02-23T15:07:50;160241.72;;;15.82;34.59
41078;BME280;26823;42.662;23.352;2024-02-23T15:10:16;160243.09;;;15.82;34.58
41078;BME280;26823;42.662;23.352;2024-02-23T15:12:41;160178.13;;;15.58;34.47
41078;BME280;26823;42.662;23.352;2024-02-23T15:15:07;160225.47;;;15.76;36.54
41078;BME280;26823;42.662;23.352;2024-02-23T15:17:33;160213.28;;;15.71;34.86
41078;BME280;26823;42.662;23.352;2024-02-23T15:19:58;160171.38;;;15.55;34.51
41078;BME280;26823;42.662;23.352;2024-02-23T15:22:24;160175.47;;;15.57;34.56
41078;BME280;26823;42.662;23.352;2024-02-23T15:24:52;160140.28;;;15.43;34.53
41078;BME280;26823;42.662;23.352;2024-02-23T15:27:18;160151.09;;;15.47;33.94
41078;BME280;26823;42.662;23.352;2024-02-23T15:29:45;160124.06;;;15.37;33.85
41078;BME280;26823;42.662;23.352;2024-02-23T15:32:10;160115.97;;;15.34;34.04
41078;BME280;26823;42.662;23.352;2024-02-23T15:34:36;160138.97;;;15.43;34.60
41078;BME280;26823;42.662;23.352;2024-02-23T15:37:01;160118.63;;;15.35;35.25
41078;BME280;26823;42.662;23.352;2024-02-23T15:39:27;160115.97;;;15.34;35.08
41078;BME280;26823;42.662;23.352;2024-02-23T15:41:52;160028.09;;;15.00;35.71
41078;BME280;26823;42.662;23.352;2024-02-23T15:44:18;159995.66;;;14.88;35.01
41078;BME280;26823;42.662;23.352;2024-02-23T15:46:43;160059.16;;;15.12;40.00
41078;BME280;26823;42.662;23.352;2024-02-23T15:49:09;159964.59;;;14.76;35.32
41078;BME280;26823;42.662;23.352;2024-02-23T15:51:34;160010.56;;;14.94;35.39
41078;BME280;26823;42.662;23.352;2024-02-23T15:54:02;159986.19;;;14.84;35.35
41078;BME280;26823;42.662;23.352;2024-02-23T15:56:28;160036.25;;;15.04;35.21
41078;BME280;26823;42.662;23.352;2024-02-23T15:58:53;160051.09;;;15.09;35.56
41078;BME280;26823;42.662;23.352;2024-02-23T16:01:19;160037.56;;;15.04;35.33
41078;BME280;26823;42.662;23.352;2024-02-23T16:03:45;160051.09;;;15.09;36.15
41078;BME280;26823;42.662;23.352;2024-02-23T16:06:10;159991.63;;;14.87;36.52
41078;BME280;26823;42.662;23.352;2024-02-23T16:08:43;160006.50;;;14.92;36.76
41078;BME280;26823;42.662;23.352;2024-02-23T16:11:10;159949.78;;;14.71;36.83
41078;BME280;26823;42.662;23.352;2024-02-23T16:13:36;159952.44;;;14.72;37.12
41078;BME280;26823;42.662;23.352;2024-02-23T16:16:03;159933.53;;;14.64;37.19
41078;BME280;26823;42.662;23.352;2024-02-23T16:18:28;159948.38;;;14.70;38.00
41078;BME280;26823;42.662;23.352;2024-02-23T16:20:54;159938.91;;;14.66;37.67
41078;BME280;26823;42.662;23.352;2024-02-23T16:23:20;159920.00;;;14.59;38.29
41078;BME280;26823;42.662;23.352;2024-02-23T16:25:46;159861.88;;;14.37;37.80
41078;BME280;26823;42.662;23.352;2024-02-23T16:28:11;159921.31;;;14.60;37.73
41078;BME280;26823;42.662;23.352;2024-02-23T16:30:38;159899.69;;;14.51;38.07
41078;BME280;26823;42.662;23.352;2024-02-23T16:33:03;159895.63;;;14.50;38.41
41078;BME280;26823;42.662;23.352;2024-02-23T16:35:29;159863.22;;;14.38;39.08
41078;BME280;26823;42.662;23.352;2024-02-23T16:37:54;159822.69;;;14.22;38.99
41078;BME280;26823;42.662;23.352;2024-02-23T16:40:23;159798.41;;;14.13;39.01
41078;BME280;26823;42.662;23.352;2024-02-23T16:42:56;159825.41;;;14.23;39.44
41078;BME280;26823;42.662;23.352;2024-02-23T16:45:22;159834.88;;;14.27;38.99
41078;BME280;26823;42.662;23.352;2024-02-23T16:47:48;159801.13;;;14.14;39.85
41078;BME280;26823;42.662;23.352;2024-02-23T16:50:13;159760.56;;;13.98;39.50
41078;BME280;26823;42.662;23.352;2024-02-23T16:52:40;159779.47;;;14.06;39.52
41078;BME280;26823;42.662;23.352;2024-02-23T16:55:06;159686.31;;;13.70;39.96
41078;BME280;26823;42.662;23.352;2024-02-23T16:57:31;159616.13;;;13.43;41.18
41078;BME280;26823;42.662;23.352;2024-02-23T16:59:57;159690.34;;;13.72;40.86
41078;BME280;26823;42.662;23.352;2024-02-23T17:02:23;159659.31;;;13.60;40.92
41078;BME280;26823;42.662;23.352;2024-02-23T17:04:49;159603.94;;;13.38;41.32
41078;BME280;26823;42.662;23.352;2024-02-23T17:07:14;159589.06;;;13.33;41.78
41078;BME280;26823;42.662;23.352;2024-02-23T17:09:40;159687.69;;;13.70;41.73
41078;BME280;26823;42.662;23.352;2024-02-23T17:12:09;159703.84;;;13.77;42.47
41078;BME280;26823;42.662;23.352;2024-02-23T17:14:35;159614.78;;;13.43;43.37
41078;BME280;26823;42.662;23.352;2024-02-23T17:17:00;159632.31;;;13.49;43.23
41078;BME280;26823;42.662;23.352;2024-02-23T17:19:26;159591.78;;;13.34;43.21
41078;BME280;26823;42.662;23.352;2024-02-23T17:21:51;159641.78;;;13.53;43.12
41078;BME280;26823;42.662;23.352;2024-02-23T17:24:17;159589.06;;;13.33;43.14
41078;BME280;26823;42.662;23.352;2024-02-23T17:26:42;159663.34;;;13.61;43.42
41078;BME280;26823;42.662;23.352;2024-02-23T17:29:08;159643.09;;;13.53;43.10
41078;BME280;26823;42.662;23.352;2024-02-23T17:31:35;159606.66;;;13.40;43.08
41078;BME280;26823;42.662;23.352;2024-02-23T17:34:01;159559.38;;;13.21;43.85
41078;BME280;26823;42.662;23.352;2024-02-23T17:36:26;159567.44;;;13.25;44.08
41078;BME280;26823;42.662;23.352;2024-02-23T17:38:52;159544.50;;;13.16;44.08
41078;BME280;26823;42.662;23.352;2024-02-23T17:41:17;159559.38;;;13.21;44.48
41078;BME280;26823;42.662;23.352;2024-02-23T17:43:42;159586.38;;;13.32;44.96
41078;BME280;26823;42.662;23.352;2024-02-23T17:46:08;159533.72;;;13.12;44.56
41078;BME280;26823;42.662;23.352;2024-02-23T17:48:34;159543.16;;;13.15;44.19
41078;BME280;26823;42.662;23.352;2024-02-23T17:51:00;159560.72;;;13.22;44.68
41078;BME280;26823;42.662;23.352;2024-02-23T17:53:26;159574.19;;;13.27;44.59